Terminal Aerodrome Forecast
Issued by NWS Lake Charles, LA

Home | Current Version | Previous Version | Text Only | Print | Product List | Glossary On
Versions: 1 2 3 4 5 6 7 8 9 10 11 12 13 14 15 16 17
000
FTUS44 KLCH 011735
TAFLFT
TAF
KLFT 011735Z 0118/0218 VRB05KT P6SM VCTS SCT025CB SCT040 BKN200
     FM020100 00000KT P6SM FEW040 BKN150
     FM021500 VRB05KT P6SM SCT025 BKN100=

USA.gov is the U.S. government's official web portal to all federal, state and local government web resources and services.